createdAt,value
2022-10-10T00:01:33.774Z,1.60
2022-10-10T00:04:03.487Z,2.40
2022-10-10T00:06:33.592Z,2.23
2022-10-10T00:09:02.439Z,2.00
2022-10-10T00:11:32.510Z,2.27
2022-10-10T00:14:00.909Z,1.80
2022-10-10T00:16:29.378Z,2.60
2022-10-10T00:18:57.915Z,1.90
2022-10-10T00:21:26.363Z,2.43
2022-10-10T00:23:55.129Z,1.87
2022-10-10T00:26:23.849Z,1.90
2022-10-10T00:28:53.852Z,2.20
2022-10-10T00:31:22.123Z,1.80
2022-10-10T00:33:50.590Z,1.87
2022-10-10T00:36:20.741Z,2.23
2022-10-10T00:38:49.409Z,2.40
2022-10-10T00:41:18.155Z,2.37
2022-10-10T00:44:09.667Z,2.00
2022-10-10T00:46:38.253Z,1.80
2022-10-10T00:49:09.330Z,2.30
2022-10-10T00:51:39.031Z,1.73
2022-10-10T00:54:10.531Z,1.87
2022-10-10T00:56:42.169Z,2.10
2022-10-10T00:59:12.907Z,1.57
2022-10-10T01:01:43.289Z,2.43
2022-10-10T01:04:33.718Z,1.90
2022-10-10T01:07:03.499Z,1.70
2022-10-10T01:09:33.699Z,1.63
2022-10-10T01:12:08.610Z,1.50
2022-10-10T01:14:42.314Z,2.13
2022-10-10T01:17:15.411Z,2.07
2022-10-10T01:20:05.782Z,2.50
2022-10-10T01:22:39.331Z,3.07
2022-10-10T01:25:19.907Z,2.37
2022-10-10T01:27:49.856Z,2.87
2022-10-10T01:30:24.129Z,2.60
2022-10-10T01:32:55.049Z,2.47
2022-10-10T01:35:30.602Z,2.20
2022-10-10T01:38:06.925Z,1.83
2022-10-10T01:40:39.831Z,2.60
2022-10-10T01:43:09.929Z,1.70
2022-10-10T01:45:41.372Z,2.13
2022-10-10T01:48:10.080Z,2.40
2022-10-10T01:50:48.417Z,1.80
2022-10-10T01:53:20.177Z,2.20
2022-10-10T01:55:55.122Z,2.00
2022-10-10T01:58:56.210Z,2.03
2022-10-10T02:01:30.028Z,1.63
2022-10-10T02:04:04.538Z,2.03
2022-10-10T02:06:37.963Z,1.60
2022-10-10T02:09:08.822Z,2.30
2022-10-10T02:11:39.306Z,2.20
2022-10-10T02:14:12.440Z,2.63
2022-10-10T02:16:46.064Z,2.30
2022-10-10T02:19:18.366Z,2.73
2022-10-10T02:21:47.365Z,2.30
2022-10-10T02:24:16.352Z,2.87
2022-10-10T02:26:47.662Z,4.33
2022-10-10T02:29:18.964Z,7.20
2022-10-10T02:31:54.673Z,9.27
2022-10-10T02:34:25.867Z,7.70
2022-10-10T02:36:57.632Z,7.13
2022-10-10T02:39:29.632Z,7.37
2022-10-10T02:41:58.342Z,6.13
2022-10-10T02:44:27.678Z,5.73
2022-10-10T02:46:57.574Z,6.10
2022-10-10T02:49:27.974Z,5.50
2022-10-10T02:51:56.464Z,4.93
2022-10-10T02:54:25.159Z,4.40
2022-10-10T02:56:53.800Z,3.67
2022-10-10T02:59:22.185Z,3.23
2022-10-10T03:01:51.666Z,3.00
2022-10-10T03:04:21.787Z,3.40
2022-10-10T03:06:50.253Z,4.03
2022-10-10T03:09:18.854Z,3.87
2022-10-10T03:11:47.455Z,4.60
2022-10-10T03:14:16.034Z,3.83
2022-10-10T03:16:44.446Z,4.37
2022-10-10T03:19:12.987Z,4.30
2022-10-10T03:21:42.853Z,3.30
2022-10-10T03:24:12.661Z,3.33
2022-10-10T03:26:41.274Z,3.77
2022-10-10T03:29:09.903Z,4.70
2022-10-10T03:31:38.155Z,7.43
2022-10-10T03:34:07.272Z,5.60
2022-10-10T03:36:35.904Z,5.73
2022-10-10T03:39:06.077Z,4.30
2022-10-10T03:41:34.544Z,3.90
2022-10-10T03:44:03.309Z,3.83
2022-10-10T03:46:34.824Z,4.37
2022-10-10T03:49:03.311Z,5.67
2022-10-10T03:51:32.243Z,6.10
2022-10-10T03:54:00.545Z,5.87
2022-10-10T03:56:30.550Z,7.07
2022-10-10T03:59:03.838Z,6.97
2022-10-10T04:01:32.618Z,7.40
2022-10-10T04:04:00.932Z,8.07
2022-10-10T04:06:29.534Z,7.23
2022-10-10T04:08:58.320Z,8.50
2022-10-10T04:11:26.874Z,6.50
2022-10-10T04:13:59.845Z,6.00
2022-10-10T04:16:28.302Z,4.00
2022-10-10T04:18:56.742Z,5.17
2022-10-10T04:21:25.594Z,5.20
2022-10-10T04:23:54.075Z,5.37
2022-10-10T04:26:22.800Z,5.27
2022-10-10T04:28:51.357Z,5.20
2022-10-10T04:31:24.323Z,5.17
2022-10-10T04:33:52.829Z,5.10
2022-10-10T04:36:21.277Z,6.53
2022-10-10T04:38:49.980Z,6.13
2022-10-10T04:41:18.156Z,4.57
2022-10-10T04:43:46.607Z,4.90
2022-10-10T04:46:15.153Z,4.83
2022-10-10T04:48:45.064Z,5.57
2022-10-10T04:51:13.530Z,4.37
2022-10-10T04:53:41.858Z,3.60
2022-10-10T04:56:10.117Z,4.43
2022-10-10T04:58:38.563Z,4.63
2022-10-10T05:01:07.360Z,3.40
2022-10-10T05:03:38.685Z,3.50
2022-10-10T05:06:08.737Z,2.30
2022-10-10T05:08:37.352Z,3.73
2022-10-10T05:11:05.830Z,3.70
2022-10-10T05:13:34.294Z,3.40
2022-10-10T05:16:03.280Z,4.23
2022-10-10T05:18:32.184Z,3.90
2022-10-10T05:21:03.589Z,4.07
2022-10-10T05:23:34.419Z,4.37
2022-10-10T05:26:03.101Z,4.67
2022-10-10T05:28:31.728Z,3.30
2022-10-10T05:31:00.001Z,4.20
2022-10-10T05:33:28.391Z,4.33
2022-10-10T05:36:04.734Z,4.10
2022-10-10T05:38:34.974Z,3.90
2022-10-10T05:41:18.642Z,4.50
2022-10-10T05:43:47.805Z,5.43
2022-10-10T05:46:16.641Z,7.77
2022-10-10T05:48:45.316Z,8.53
2022-10-10T05:51:13.951Z,6.70
2022-10-10T05:53:43.969Z,4.97
2022-10-10T05:56:15.078Z,4.30
2022-10-10T05:58:43.607Z,4.30
2022-10-10T06:01:12.797Z,4.40
2022-10-10T06:03:42.793Z,4.53
2022-10-10T06:06:11.866Z,3.43
2022-10-10T06:08:40.201Z,4.47
2022-10-10T06:11:11.120Z,4.70
2022-10-10T06:13:43.084Z,4.97
2022-10-10T06:16:11.411Z,4.40
2022-10-10T06:18:41.571Z,5.17
2022-10-10T06:21:17.086Z,4.97
2022-10-10T06:23:46.298Z,4.87
2022-10-10T06:26:20.374Z,5.67
2022-10-10T06:28:51.942Z,5.30
2022-10-10T06:31:22.763Z,6.03
2022-10-10T06:33:54.342Z,4.97
2022-10-10T06:36:23.740Z,6.20
2022-10-10T06:38:55.689Z,6.03
2022-10-10T06:41:27.877Z,7.47
2022-10-10T06:43:59.293Z,6.60
2022-10-10T06:46:28.827Z,6.27
2022-10-10T06:48:57.856Z,5.93
2022-10-10T06:51:28.012Z,5.67
2022-10-10T06:53:59.582Z,6.07
2022-10-10T06:56:34.517Z,4.83
2022-10-10T06:59:04.116Z,6.80
2022-10-10T07:01:32.857Z,5.27
2022-10-10T07:04:02.989Z,5.70
2022-10-10T07:06:35.021Z,4.03
2022-10-10T07:09:05.423Z,5.23
2022-10-10T07:11:36.106Z,4.73
2022-10-10T07:14:08.021Z,3.73
2022-10-10T07:16:37.704Z,4.90
2022-10-10T07:19:06.931Z,4.50
2022-10-10T07:21:37.514Z,3.50
2022-10-10T07:24:07.636Z,3.87
2022-10-10T07:26:39.732Z,3.70
2022-10-10T07:29:08.381Z,5.60
2022-10-10T07:31:37.792Z,3.60
2022-10-10T07:34:08.612Z,3.33
2022-10-10T07:36:40.637Z,4.40
2022-10-10T07:39:11.705Z,3.33
2022-10-10T07:41:44.923Z,4.20
2022-10-10T07:44:14.083Z,3.80
2022-10-10T07:46:43.842Z,2.60
2022-10-10T07:49:14.679Z,3.33
2022-10-10T07:51:43.410Z,3.43
2022-10-10T07:54:12.839Z,3.90
2022-10-10T07:56:42.118Z,3.27
2022-10-10T07:59:19.372Z,3.00
2022-10-10T08:01:52.899Z,3.70
2022-10-10T08:04:22.032Z,3.43
2022-10-10T08:06:51.073Z,3.83
2022-10-10T08:09:19.575Z,4.17
2022-10-10T08:11:48.687Z,3.90
2022-10-10T08:14:18.420Z,3.77
2022-10-10T08:16:47.617Z,4.07
2022-10-10T08:19:15.828Z,4.40
2022-10-10T08:21:45.341Z,4.40
2022-10-10T08:24:15.664Z,25.30
2022-10-10T08:26:43.936Z,43.37
2022-10-10T08:29:14.698Z,21.53
2022-10-10T08:31:46.520Z,14.23
2022-10-10T08:34:17.424Z,11.93
2022-10-10T08:36:47.024Z,16.53
2022-10-10T08:39:19.063Z,9.47
2022-10-10T08:41:51.742Z,5.33
2022-10-10T08:44:27.016Z,4.70
2022-10-10T08:46:59.139Z,4.03
2022-10-10T08:49:32.794Z,25.37
2022-10-10T08:52:08.130Z,23.90
2022-10-10T08:54:39.244Z,12.27
2022-10-10T08:57:15.541Z,9.10
2022-10-10T08:59:44.509Z,8.50
2022-10-10T09:02:38.241Z,8.50
2022-10-10T09:05:21.934Z,6.90
2022-10-10T09:08:04.728Z,3.40
2022-10-10T09:10:38.152Z,4.13
2022-10-10T09:13:19.525Z,5.40
2022-10-10T09:15:55.566Z,8.70
2022-10-10T09:18:34.478Z,4.60
2022-10-10T09:21:08.729Z,3.80
2022-10-10T09:23:43.274Z,3.70
2022-10-10T09:26:15.404Z,3.47
2022-10-10T09:28:49.114Z,3.30
2022-10-10T09:31:20.944Z,4.67
2022-10-10T09:33:58.047Z,3.60
2022-10-10T09:36:30.592Z,4.07
2022-10-10T09:39:02.710Z,6.83
2022-10-10T09:41:37.573Z,4.20
2022-10-10T09:44:10.915Z,3.20
2022-10-10T09:46:41.148Z,2.90
2022-10-10T09:49:17.238Z,3.40
2022-10-10T09:51:48.055Z,3.80
2022-10-10T09:54:21.100Z,2.60
2022-10-10T09:56:52.070Z,2.60
2022-10-10T09:59:43.603Z,3.30
2022-10-10T10:02:20.078Z,3.07
2022-10-10T10:04:53.179Z,2.93
2022-10-10T10:07:34.068Z,2.77
2022-10-10T10:10:06.671Z,2.90
2022-10-10T10:12:42.146Z,2.53
2022-10-10T10:15:20.468Z,2.60
2022-10-10T10:18:13.822Z,2.33
2022-10-10T10:20:47.018Z,2.80
2022-10-10T10:23:28.211Z,3.27
2022-10-10T10:26:03.441Z,1.90
2022-10-10T10:28:33.969Z,2.50
2022-10-10T10:31:04.001Z,2.67
2022-10-10T10:33:40.911Z,2.77
2022-10-10T10:36:25.349Z,2.47
2022-10-10T10:39:01.614Z,2.93
2022-10-10T10:41:40.379Z,2.90
2022-10-10T10:44:24.483Z,3.50
2022-10-10T10:47:06.939Z,2.63
2022-10-10T10:49:39.028Z,2.40
2022-10-10T10:52:32.633Z,2.50
2022-10-10T10:55:20.440Z,2.20
2022-10-10T11:01:20.190Z,3.07
2022-10-10T11:05:19.929Z,2.43
2022-10-10T11:10:07.438Z,3.13
2022-10-10T11:12:49.706Z,2.67
2022-10-10T11:15:22.413Z,2.70
2022-10-10T11:17:58.053Z,2.70
2022-10-10T11:20:32.184Z,3.17
2022-10-10T11:23:09.223Z,3.70
2022-10-10T11:25:45.943Z,3.50
2022-10-10T11:28:18.566Z,3.67
2022-10-10T11:30:53.045Z,3.70
2022-10-10T11:33:26.652Z,3.00
2022-10-10T11:35:58.413Z,3.13
2022-10-10T11:38:35.033Z,2.60
2022-10-10T11:41:11.513Z,2.50
2022-10-10T11:43:48.835Z,3.77
2022-10-10T11:46:27.504Z,2.70
2022-10-10T11:49:03.946Z,2.80
2022-10-10T11:51:42.032Z,3.03
2022-10-10T11:54:20.449Z,2.43
2022-10-10T11:56:53.953Z,2.80
2022-10-10T11:59:28.672Z,2.87
2022-10-10T12:02:03.055Z,2.90
2022-10-10T12:04:37.934Z,2.50
2022-10-10T12:07:14.476Z,2.70
2022-10-10T12:09:47.549Z,3.40
2022-10-10T12:12:25.164Z,4.00
2022-10-10T12:14:56.149Z,3.03
2022-10-10T12:17:32.287Z,2.93
2022-10-10T12:20:12.543Z,3.03
2022-10-10T12:22:43.263Z,2.67
2022-10-10T12:25:28.655Z,2.63
2022-10-10T12:28:21.997Z,2.87
2022-10-10T12:31:30.306Z,3.10
2022-10-10T12:34:36.176Z,2.77
2022-10-10T12:37:28.095Z,2.23
2022-10-10T12:40:20.364Z,2.70
2022-10-10T12:43:07.356Z,3.20
2022-10-10T12:45:59.634Z,2.90
2022-10-10T12:48:29.477Z,2.70
2022-10-10T12:51:03.089Z,3.37
2022-10-10T12:53:35.708Z,2.90
2022-10-10T12:56:05.316Z,3.07
2022-10-10T12:58:39.803Z,2.80
2022-10-10T13:01:28.487Z,2.70
2022-10-10T13:04:03.691Z,3.67
2022-10-10T13:06:42.164Z,3.53
2022-10-10T13:09:17.660Z,2.87
2022-10-10T13:11:58.244Z,3.80
2022-10-10T13:14:41.195Z,3.50
2022-10-10T13:17:26.368Z,3.40
2022-10-10T13:19:58.834Z,3.27
2022-10-10T13:22:30.273Z,3.33
2022-10-10T13:25:02.731Z,3.43
2022-10-10T13:27:38.769Z,3.50
2022-10-10T13:30:20.267Z,4.00
2022-10-10T13:32:50.650Z,3.17
2022-10-10T13:35:23.640Z,4.17
2022-10-10T13:37:57.949Z,3.90
2022-10-10T13:40:28.613Z,3.67
2022-10-10T13:42:59.062Z,4.57
2022-10-10T13:45:37.946Z,4.07
2022-10-10T13:48:28.306Z,3.80
2022-10-10T13:51:09.941Z,4.00
2022-10-10T13:53:51.441Z,4.27
2022-10-10T13:56:37.611Z,4.20
2022-10-10T13:59:34.841Z,4.47
2022-10-10T14:02:46.116Z,8.23
2022-10-10T14:05:51.792Z,5.13
2022-10-10T14:08:47.536Z,4.87
2022-10-10T14:11:46.769Z,3.97
2022-10-10T14:14:43.469Z,3.10
2022-10-10T14:17:51.423Z,3.53
2022-10-10T14:21:04.546Z,3.97
2022-10-10T14:24:12.807Z,3.57
2022-10-10T14:27:28.512Z,3.20
2022-10-10T14:30:20.590Z,3.83
2022-10-10T14:33:21.197Z,3.53
2022-10-10T14:36:18.346Z,3.60
2022-10-10T14:39:18.997Z,3.53
2022-10-10T14:42:36.789Z,3.60
2022-10-10T14:45:36.261Z,3.43
2022-10-10T14:48:20.723Z,3.47
2022-10-10T14:51:34.065Z,3.63
2022-10-10T14:54:10.747Z,3.57
2022-10-10T14:57:07.551Z,3.50
2022-10-10T14:59:46.286Z,3.70
2022-10-10T15:02:19.053Z,3.10
2022-10-10T15:04:53.428Z,2.77
2022-10-10T15:07:28.003Z,2.97
2022-10-10T15:12:50.159Z,4.50
2022-10-10T15:15:20.919Z,4.40
2022-10-10T15:17:51.510Z,4.87
2022-10-10T15:20:29.800Z,5.37
2022-10-10T15:22:59.885Z,5.90
2022-10-10T15:25:33.665Z,6.17
2022-10-10T15:28:05.286Z,5.40
2022-10-10T15:30:40.707Z,5.60
2022-10-10T15:33:13.234Z,4.67
2022-10-10T15:36:08.056Z,4.10
2022-10-10T15:38:36.814Z,5.10
2022-10-10T15:41:09.836Z,4.03
2022-10-10T15:43:46.258Z,3.70
2022-10-10T15:46:19.709Z,5.50
2022-10-10T15:48:50.988Z,4.47
2022-10-10T15:51:24.506Z,4.57
2022-10-10T15:53:55.929Z,5.30
2022-10-10T15:56:26.616Z,4.40
2022-10-10T15:58:59.151Z,4.33
2022-10-10T16:01:30.363Z,3.40
2022-10-10T16:04:02.183Z,4.00
2022-10-10T16:06:39.858Z,4.43
2022-10-10T16:09:27.536Z,4.20
2022-10-10T16:12:04.287Z,4.10
2022-10-10T16:14:34.996Z,4.73
2022-10-10T16:17:05.616Z,4.50
2022-10-10T16:19:36.546Z,4.50
2022-10-10T16:22:07.574Z,3.20
2022-10-10T16:24:41.162Z,4.60
2022-10-10T16:27:14.766Z,4.27
2022-10-10T16:29:48.837Z,4.33
2022-10-10T16:32:23.724Z,5.23
2022-10-10T16:35:00.800Z,4.73
2022-10-10T16:37:39.903Z,5.97
2022-10-10T16:40:15.148Z,7.27
2022-10-10T16:42:50.165Z,7.50
2022-10-10T16:45:26.774Z,8.63
2022-10-10T16:48:04.889Z,7.70
2022-10-10T16:50:35.878Z,14.70
2022-10-10T16:53:07.911Z,12.80
2022-10-10T16:55:44.069Z,9.87
2022-10-10T16:58:17.444Z,7.17
2022-10-10T17:00:55.265Z,6.17
2022-10-10T17:03:34.799Z,6.57
2022-10-10T17:06:16.868Z,4.63
2022-10-10T17:09:01.732Z,5.13
2022-10-10T17:11:41.722Z,5.80
2022-10-10T17:14:18.945Z,5.30
2022-10-10T17:17:11.657Z,5.57
2022-10-10T17:19:53.210Z,5.67
2022-10-10T17:22:31.995Z,7.20
2022-10-10T17:25:12.743Z,5.97
2022-10-10T17:27:53.217Z,5.20
2022-10-10T17:30:32.192Z,4.80
2022-10-10T17:33:11.868Z,5.20
2022-10-10T17:35:52.203Z,5.53
2022-10-10T17:38:39.740Z,6.33
2022-10-10T17:41:23.933Z,6.10
2022-10-10T17:44:03.866Z,6.07
2022-10-10T17:46:42.905Z,4.67
2022-10-10T17:49:21.376Z,5.50
2022-10-10T17:52:03.713Z,5.63
2022-10-10T17:54:42.830Z,5.23
2022-10-10T17:57:20.070Z,16.33
2022-10-10T17:59:59.292Z,17.50
2022-10-10T18:02:39.225Z,8.73
2022-10-10T18:05:19.222Z,6.57
2022-10-10T18:07:56.877Z,5.90
2022-10-10T18:10:32.876Z,6.40
2022-10-10T18:13:12.232Z,5.07
2022-10-10T18:15:58.577Z,4.80
2022-10-10T18:18:43.804Z,4.93
2022-10-10T18:21:21.770Z,5.70
2022-10-10T18:23:59.524Z,4.00
2022-10-10T18:26:38.277Z,5.97
2022-10-10T18:29:16.253Z,5.50
2022-10-10T18:31:53.003Z,5.90
2022-10-10T18:34:29.669Z,4.60
2022-10-10T18:37:06.769Z,5.17
2022-10-10T18:39:44.879Z,5.40
2022-10-10T18:42:20.836Z,6.00
2022-10-10T18:44:59.883Z,5.00
2022-10-10T18:47:35.455Z,5.33
2022-10-10T18:50:14.272Z,5.00
2022-10-10T18:52:51.689Z,5.20
2022-10-10T18:55:32.064Z,6.27
2022-10-10T18:58:07.199Z,6.80
2022-10-10T19:00:45.524Z,6.33
2022-10-10T19:03:20.266Z,6.50
2022-10-10T19:05:56.892Z,6.00
2022-10-10T19:08:34.105Z,5.50
2022-10-10T19:11:11.344Z,4.80
2022-10-10T19:13:48.979Z,5.33
2022-10-10T19:16:26.972Z,4.80
2022-10-10T19:19:06.747Z,4.30
2022-10-10T19:21:44.110Z,4.60
2022-10-10T19:24:23.497Z,4.00
2022-10-10T19:27:04.034Z,4.43
2022-10-10T19:29:41.460Z,3.83
2022-10-10T19:32:20.949Z,4.10
2022-10-10T19:34:56.076Z,4.10
2022-10-10T19:37:33.069Z,4.17
2022-10-10T19:40:10.974Z,4.80
2022-10-10T19:42:47.063Z,4.00
2022-10-10T19:45:20.883Z,4.87
2022-10-10T19:47:59.387Z,4.17
2022-10-10T19:50:36.456Z,4.23
2022-10-10T19:53:15.046Z,4.07
2022-10-10T19:55:53.513Z,5.53
2022-10-10T19:58:30.700Z,3.97
2022-10-10T20:01:03.693Z,4.47
2022-10-10T20:03:44.013Z,4.93
2022-10-10T20:06:22.228Z,4.00
2022-10-10T20:09:00.764Z,3.50
2022-10-10T20:11:37.333Z,4.50
2022-10-10T20:14:10.808Z,4.60
2022-10-10T20:16:47.329Z,3.77
2022-10-10T20:19:25.008Z,4.37
2022-10-10T20:22:03.269Z,3.30
2022-10-10T20:24:41.294Z,4.30
2022-10-10T20:27:14.993Z,4.00
2022-10-10T20:29:55.372Z,3.93
2022-10-10T20:32:31.834Z,3.90
2022-10-10T20:35:13.327Z,4.17
2022-10-10T20:37:53.064Z,3.90
2022-10-10T20:40:33.315Z,5.60
2022-10-10T20:43:11.335Z,5.27
2022-10-10T20:45:50.350Z,3.87
2022-10-10T20:48:32.111Z,4.87
2022-10-10T20:51:17.480Z,3.90
2022-10-10T20:54:01.360Z,4.07
2022-10-10T20:56:40.938Z,4.03
2022-10-10T20:59:18.493Z,3.70
2022-10-10T21:01:56.690Z,4.47
2022-10-10T21:04:35.380Z,5.80
2022-10-10T21:07:15.599Z,5.23
2022-10-10T21:09:53.379Z,5.27
2022-10-10T21:12:32.075Z,4.63
2022-10-10T21:15:10.361Z,4.63
2022-10-10T21:17:50.362Z,4.90
2022-10-10T21:20:29.555Z,3.57
2022-10-10T21:23:10.453Z,5.10
2022-10-10T21:25:50.022Z,4.47
2022-10-10T21:28:32.056Z,3.80
2022-10-10T21:31:08.377Z,5.13
2022-10-10T21:33:48.042Z,4.20
2022-10-10T21:36:26.392Z,3.67
2022-10-10T21:39:11.374Z,3.77
2022-10-10T21:41:51.137Z,3.73
2022-10-10T21:44:31.378Z,3.73
2022-10-10T21:47:09.777Z,3.90
2022-10-10T21:49:49.417Z,4.60
2022-10-10T21:52:28.952Z,4.43
2022-10-10T21:55:13.009Z,4.10
2022-10-10T21:57:50.169Z,5.37
2022-10-10T22:00:29.054Z,4.50
2022-10-10T22:03:05.693Z,4.93
2022-10-10T22:05:47.393Z,5.03
2022-10-10T22:08:24.920Z,3.87
2022-10-10T22:11:09.238Z,3.90
2022-10-10T22:13:50.100Z,3.60
2022-10-10T22:16:29.316Z,3.33
2022-10-10T22:19:08.414Z,4.07
2022-10-10T22:21:47.403Z,3.00
2022-10-10T22:24:28.590Z,3.10
2022-10-10T22:27:11.049Z,3.83
2022-10-10T22:29:47.412Z,3.30
2022-10-10T22:32:25.416Z,3.77
2022-10-10T22:35:02.711Z,3.67
2022-10-10T22:37:46.049Z,3.13
2022-10-10T22:40:25.920Z,3.83
2022-10-10T22:43:07.080Z,4.00
2022-10-10T22:45:46.782Z,4.33
2022-10-10T22:48:24.069Z,4.00
2022-10-10T22:51:11.232Z,3.70
2022-10-10T22:53:50.078Z,3.07
2022-10-10T22:56:27.439Z,3.40
2022-10-10T22:59:06.429Z,3.83
2022-10-10T23:01:47.550Z,4.10
2022-10-10T23:04:25.925Z,3.30
2022-10-10T23:07:03.482Z,3.60
2022-10-10T23:09:44.854Z,3.50
2022-10-10T23:12:25.190Z,3.20
2022-10-10T23:15:05.209Z,2.87
2022-10-10T23:17:44.484Z,4.17
2022-10-10T23:20:23.462Z,3.17
2022-10-10T23:23:03.450Z,3.50
2022-10-10T23:25:48.629Z,3.47
2022-10-10T23:28:29.505Z,3.23
2022-10-10T23:31:11.457Z,4.27
2022-10-10T23:33:50.526Z,3.90
2022-10-10T23:36:29.621Z,3.10
2022-10-10T23:39:10.063Z,3.10
2022-10-10T23:41:52.296Z,3.07
2022-10-10T23:44:28.983Z,2.87
2022-10-10T23:47:10.350Z,3.37
2022-10-10T23:49:50.013Z,3.93
2022-10-10T23:52:29.927Z,3.23
2022-10-10T23:55:07.901Z,3.07
2022-10-10T23:57:46.910Z,2.87
